South Collingham, United Kingdom
Current Conditions -  °F | °C
As of 3:50 AM on Tuesday 23 Dec 2014 (Local Time) from EGXW Reporting Station
Overcast Overcast  
Wind Chill: 54°   Ceiling: 2100
Heat Index: 54°   Visibility: 6mi
Dew Point: 45°   Wind: 22mph
Humidity: 72%   Direction: 240°WSW
Pressure: 29.85"   Gusts: NA
Location:  53.13°N, 0.77°W
Report Text: EGXW 230350Z 24019KT 9999 OVC021 12/07 Q1011 WHT
Loading
Personal Weather Stations






























Interactive Weather Map New forecast layout! Learn more

10-Day Weather Forecast

Advertisements
Track Severe Weather on mobile